sensor_id;sensor_type;location;lat;lon;timestamp;P1;durP1;ratioP1;P2;durP2;ratioP2
37487;SDS011;23342;52.620;13.300;2022-08-05T00:00:17;9.73;;;5.90;;
37487;SDS011;23342;52.620;13.300;2022-08-05T00:02:44;11.87;;;5.60;;
37487;SDS011;23342;52.620;13.300;2022-08-05T00:05:10;7.53;;;5.60;;
37487;SDS011;23342;52.620;13.300;2022-08-05T00:07:35;9.17;;;6.17;;
37487;SDS011;23342;52.620;13.300;2022-08-05T00:10:01;7.53;;;5.47;;
37487;SDS011;23342;52.620;13.300;2022-08-05T00:12:27;7.53;;;5.50;;
37487;SDS011;23342;52.620;13.300;2022-08-05T00:14:52;10.70;;;5.60;;
37487;SDS011;23342;52.620;13.300;2022-08-05T00:17:18;8.07;;;5.80;;
37487;SDS011;23342;52.620;13.300;2022-08-05T00:19:43;15.33;;;5.90;;
37487;SDS011;23342;52.620;13.300;2022-08-05T00:22:08;10.63;;;6.00;;
37487;SDS011;23342;52.620;13.300;2022-08-05T00:24:34;9.53;;;5.80;;
37487;SDS011;23342;52.620;13.300;2022-08-05T00:27:00;7.93;;;5.43;;
37487;SDS011;23342;52.620;13.300;2022-08-05T00:29:26;8.53;;;5.73;;
37487;SDS011;23342;52.620;13.300;2022-08-05T00:31:52;8.27;;;5.87;;
37487;SDS011;23342;52.620;13.300;2022-08-05T00:34:18;9.50;;;6.00;;
37487;SDS011;23342;52.620;13.300;2022-08-05T00:36:43;8.27;;;5.90;;
37487;SDS011;23342;52.620;13.300;2022-08-05T00:39:09;7.53;;;5.53;;
37487;SDS011;23342;52.620;13.300;2022-08-05T00:41:34;10.73;;;5.57;;
37487;SDS011;23342;52.620;13.300;2022-08-05T00:44:00;8.73;;;5.63;;
37487;SDS011;23342;52.620;13.300;2022-08-05T00:46:26;7.50;;;5.97;;
37487;SDS011;23342;52.620;13.300;2022-08-05T00:48:52;9.37;;;6.00;;
37487;SDS011;23342;52.620;13.300;2022-08-05T00:51:18;12.30;;;5.90;;
37487;SDS011;23342;52.620;13.300;2022-08-05T00:53:45;6.50;;;5.27;;
37487;SDS011;23342;52.620;13.300;2022-08-05T00:56:11;8.30;;;5.40;;
37487;SDS011;23342;52.620;13.300;2022-08-05T00:58:40;8.67;;;5.67;;
37487;SDS011;23342;52.620;13.300;2022-08-05T01:01:05;8.17;;;5.20;;
37487;SDS011;23342;52.620;13.300;2022-08-05T01:03:31;7.63;;;5.47;;
37487;SDS011;23342;52.620;13.300;2022-08-05T01:05:56;9.00;;;5.13;;
37487;SDS011;23342;52.620;13.300;2022-08-05T01:08:22;10.10;;;5.30;;
37487;SDS011;23342;52.620;13.300;2022-08-05T01:10:50;10.53;;;5.43;;
37487;SDS011;23342;52.620;13.300;2022-08-05T01:16:20;7.80;;;5.60;;
37487;SDS011;23342;52.620;13.300;2022-08-05T01:19:10;6.27;;;5.00;;
37487;SDS011;23342;52.620;13.300;2022-08-05T01:21:50;5.47;;;4.63;;
37487;SDS011;23342;52.620;13.300;2022-08-05T01:29:49;12.27;;;5.03;;
37487;SDS011;23342;52.620;13.300;2022-08-05T01:32:19;5.03;;;4.37;;
37487;SDS011;23342;52.620;13.300;2022-08-05T01:34:50;15.37;;;5.30;;
37487;SDS011;23342;52.620;13.300;2022-08-05T01:40:37;7.73;;;3.93;;
37487;SDS011;23342;52.620;13.300;2022-08-05T01:43:04;5.87;;;4.40;;
37487;SDS011;23342;52.620;13.300;2022-08-05T01:45:31;13.57;;;4.50;;
37487;SDS011;23342;52.620;13.300;2022-08-05T01:47:59;7.27;;;4.40;;
37487;SDS011;23342;52.620;13.300;2022-08-05T01:50:33;12.83;;;4.60;;
37487;SDS011;23342;52.620;13.300;2022-08-05T01:53:03;13.93;;;4.60;;
37487;SDS011;23342;52.620;13.300;2022-08-05T01:55:36;9.60;;;4.70;;
37487;SDS011;23342;52.620;13.300;2022-08-05T01:58:03;7.20;;;4.30;;
37487;SDS011;23342;52.620;13.300;2022-08-05T02:00:32;8.47;;;4.50;;
37487;SDS011;23342;52.620;13.300;2022-08-05T02:03:06;13.27;;;4.30;;
37487;SDS011;23342;52.620;13.300;2022-08-05T02:05:47;7.33;;;4.00;;
37487;SDS011;23342;52.620;13.300;2022-08-05T02:08:14;7.63;;;4.17;;
37487;SDS011;23342;52.620;13.300;2022-08-05T02:10:43;7.53;;;4.10;;
37487;SDS011;23342;52.620;13.300;2022-08-05T02:13:15;5.37;;;3.93;;
37487;SDS011;23342;52.620;13.300;2022-08-05T02:15:53;8.87;;;4.20;;
37487;SDS011;23342;52.620;13.300;2022-08-05T02:18:28;7.10;;;4.37;;
37487;SDS011;23342;52.620;13.300;2022-08-05T02:21:00;10.67;;;3.83;;
37487;SDS011;23342;52.620;13.300;2022-08-05T02:23:36;9.73;;;4.00;;
37487;SDS011;23342;52.620;13.300;2022-08-05T02:26:05;6.73;;;3.97;;
37487;SDS011;23342;52.620;13.300;2022-08-05T02:28:33;8.10;;;4.07;;
37487;SDS011;23342;52.620;13.300;2022-08-05T02:31:07;7.73;;;3.87;;
37487;SDS011;23342;52.620;13.300;2022-08-05T02:34:00;5.93;;;3.83;;
37487;SDS011;23342;52.620;13.300;2022-08-05T02:36:28;9.10;;;4.20;;
37487;SDS011;23342;52.620;13.300;2022-08-05T02:38:58;5.50;;;4.20;;
37487;SDS011;23342;52.620;13.300;2022-08-05T02:41:26;5.77;;;3.73;;
37487;SDS011;23342;52.620;13.300;2022-08-05T02:43:52;8.27;;;4.00;;
37487;SDS011;23342;52.620;13.300;2022-08-05T02:46:21;5.30;;;4.63;;
37487;SDS011;23342;52.620;13.300;2022-08-05T02:48:48;7.47;;;4.10;;
37487;SDS011;23342;52.620;13.300;2022-08-05T02:51:15;6.87;;;4.13;;
37487;SDS011;23342;52.620;13.300;2022-08-05T02:53:42;5.60;;;4.03;;
37487;SDS011;23342;52.620;13.300;2022-08-05T02:56:09;8.73;;;3.87;;
37487;SDS011;23342;52.620;13.300;2022-08-05T02:58:39;4.40;;;3.77;;
37487;SDS011;23342;52.620;13.300;2022-08-05T03:01:08;5.07;;;4.00;;
37487;SDS011;23342;52.620;13.300;2022-08-05T03:03:40;5.43;;;4.20;;
37487;SDS011;23342;52.620;13.300;2022-08-05T03:06:08;6.37;;;4.20;;
37487;SDS011;23342;52.620;13.300;2022-08-05T03:08:35;9.13;;;4.07;;
37487;SDS011;23342;52.620;13.300;2022-08-05T03:11:02;5.83;;;4.03;;
37487;SDS011;23342;52.620;13.300;2022-08-05T03:13:28;5.63;;;4.20;;
37487;SDS011;23342;52.620;13.300;2022-08-05T03:15:53;5.70;;;4.30;;
37487;SDS011;23342;52.620;13.300;2022-08-05T03:18:18;7.27;;;3.97;;
37487;SDS011;23342;52.620;13.300;2022-08-05T03:20:44;9.20;;;4.10;;
37487;SDS011;23342;52.620;13.300;2022-08-05T03:23:09;5.63;;;3.97;;
37487;SDS011;23342;52.620;13.300;2022-08-05T03:25:37;8.10;;;4.50;;
37487;SDS011;23342;52.620;13.300;2022-08-05T03:28:03;13.00;;;4.00;;
37487;SDS011;23342;52.620;13.300;2022-08-05T03:30:31;5.23;;;3.90;;
37487;SDS011;23342;52.620;13.300;2022-08-05T03:33:00;6.43;;;4.07;;
37487;SDS011;23342;52.620;13.300;2022-08-05T03:35:28;8.10;;;4.33;;
37487;SDS011;23342;52.620;13.300;2022-08-05T03:37:55;7.77;;;3.90;;
37487;SDS011;23342;52.620;13.300;2022-08-05T03:40:22;5.37;;;4.00;;
37487;SDS011;23342;52.620;13.300;2022-08-05T03:42:48;6.20;;;4.70;;
37487;SDS011;23342;52.620;13.300;2022-08-05T03:45:13;5.63;;;3.80;;
37487;SDS011;23342;52.620;13.300;2022-08-05T03:47:39;10.30;;;4.20;;
37487;SDS011;23342;52.620;13.300;2022-08-05T03:50:04;11.63;;;4.60;;
37487;SDS011;23342;52.620;13.300;2022-08-05T03:52:32;5.67;;;4.40;;
37487;SDS011;23342;52.620;13.300;2022-08-05T03:55:02;4.77;;;4.00;;
37487;SDS011;23342;52.620;13.300;2022-08-05T03:57:31;6.23;;;4.27;;
37487;SDS011;23342;52.620;13.300;2022-08-05T04:00:02;4.43;;;4.00;;
37487;SDS011;23342;52.620;13.300;2022-08-05T04:02:33;5.83;;;4.30;;
37487;SDS011;23342;52.620;13.300;2022-08-05T04:05:00;5.93;;;4.20;;
37487;SDS011;23342;52.620;13.300;2022-08-05T04:07:27;9.97;;;4.37;;
37487;SDS011;23342;52.620;13.300;2022-08-05T04:09:53;6.50;;;4.90;;
37487;SDS011;23342;52.620;13.300;2022-08-05T04:12:20;6.20;;;4.50;;
37487;SDS011;23342;52.620;13.300;2022-08-05T04:14:46;7.03;;;4.33;;
37487;SDS011;23342;52.620;13.300;2022-08-05T04:17:12;8.13;;;4.73;;
37487;SDS011;23342;52.620;13.300;2022-08-05T04:19:41;7.33;;;4.40;;
37487;SDS011;23342;52.620;13.300;2022-08-05T04:22:09;11.07;;;4.57;;
37487;SDS011;23342;52.620;13.300;2022-08-05T04:24:35;5.30;;;4.43;;
37487;SDS011;23342;52.620;13.300;2022-08-05T04:27:02;6.90;;;4.20;;
37487;SDS011;23342;52.620;13.300;2022-08-05T04:29:28;5.40;;;4.20;;
37487;SDS011;23342;52.620;13.300;2022-08-05T04:31:53;7.90;;;4.80;;
37487;SDS011;23342;52.620;13.300;2022-08-05T04:34:18;7.93;;;4.77;;
37487;SDS011;23342;52.620;13.300;2022-08-05T04:36:44;6.73;;;4.00;;
37487;SDS011;23342;52.620;13.300;2022-08-05T04:39:09;9.50;;;4.33;;
37487;SDS011;23342;52.620;13.300;2022-08-05T04:41:35;4.60;;;3.80;;
37487;SDS011;23342;52.620;13.300;2022-08-05T04:44:01;5.23;;;4.40;;
37487;SDS011;23342;52.620;13.300;2022-08-05T04:46:27;6.60;;;4.17;;
37487;SDS011;23342;52.620;13.300;2022-08-05T04:48:52;9.70;;;4.70;;
37487;SDS011;23342;52.620;13.300;2022-08-05T04:51:18;5.83;;;4.47;;
37487;SDS011;23342;52.620;13.300;2022-08-05T04:53:43;6.23;;;4.13;;
37487;SDS011;23342;52.620;13.300;2022-08-05T04:56:09;8.43;;;4.20;;
37487;SDS011;23342;52.620;13.300;2022-08-05T04:58:34;6.27;;;4.37;;
37487;SDS011;23342;52.620;13.300;2022-08-05T05:01:00;5.77;;;4.10;;
37487;SDS011;23342;52.620;13.300;2022-08-05T05:03:26;5.97;;;3.60;;
37487;SDS011;23342;52.620;13.300;2022-08-05T05:05:51;6.73;;;3.93;;
37487;SDS011;23342;52.620;13.300;2022-08-05T05:08:17;9.37;;;4.27;;
37487;SDS011;23342;52.620;13.300;2022-08-05T05:10:43;5.93;;;3.80;;
37487;SDS011;23342;52.620;13.300;2022-08-05T05:13:11;8.20;;;4.37;;
37487;SDS011;23342;52.620;13.300;2022-08-05T05:15:39;6.13;;;3.97;;
37487;SDS011;23342;52.620;13.300;2022-08-05T05:18:06;8.50;;;4.00;;
37487;SDS011;23342;52.620;13.300;2022-08-05T05:20:33;5.13;;;3.87;;
37487;SDS011;23342;52.620;13.300;2022-08-05T05:22:59;4.40;;;4.00;;
37487;SDS011;23342;52.620;13.300;2022-08-05T05:25:28;5.83;;;3.80;;
37487;SDS011;23342;52.620;13.300;2022-08-05T05:27:54;6.03;;;3.87;;
37487;SDS011;23342;52.620;13.300;2022-08-05T05:30:19;8.27;;;4.00;;
37487;SDS011;23342;52.620;13.300;2022-08-05T05:32:46;6.00;;;4.20;;
37487;SDS011;23342;52.620;13.300;2022-08-05T05:35:11;6.70;;;3.83;;
37487;SDS011;23342;52.620;13.300;2022-08-05T05:37:49;6.77;;;4.23;;
37487;SDS011;23342;52.620;13.300;2022-08-05T05:40:16;7.93;;;4.83;;
37487;SDS011;23342;52.620;13.300;2022-08-05T05:42:44;8.30;;;4.83;;
37487;SDS011;23342;52.620;13.300;2022-08-05T05:45:11;7.33;;;4.67;;
37487;SDS011;23342;52.620;13.300;2022-08-05T05:47:37;9.83;;;4.83;;
37487;SDS011;23342;52.620;13.300;2022-08-05T05:50:03;8.63;;;4.50;;
37487;SDS011;23342;52.620;13.300;2022-08-05T05:52:30;8.13;;;4.10;;
37487;SDS011;23342;52.620;13.300;2022-08-05T05:54:57;6.40;;;3.83;;
37487;SDS011;23342;52.620;13.300;2022-08-05T05:57:24;11.57;;;4.30;;
37487;SDS011;23342;52.620;13.300;2022-08-05T05:59:50;11.60;;;4.97;;
37487;SDS011;23342;52.620;13.300;2022-08-05T06:02:16;7.77;;;4.43;;
37487;SDS011;23342;52.620;13.300;2022-08-05T06:04:41;12.30;;;4.33;;
37487;SDS011;23342;52.620;13.300;2022-08-05T06:07:07;9.17;;;4.93;;
37487;SDS011;23342;52.620;13.300;2022-08-05T06:09:32;8.67;;;4.80;;
37487;SDS011;23342;52.620;13.300;2022-08-05T06:11:58;7.43;;;4.33;;
37487;SDS011;23342;52.620;13.300;2022-08-05T06:14:23;5.23;;;4.00;;
37487;SDS011;23342;52.620;13.300;2022-08-05T06:16:49;11.30;;;4.47;;
37487;SDS011;23342;52.620;13.300;2022-08-05T06:19:14;5.20;;;4.00;;
37487;SDS011;23342;52.620;13.300;2022-08-05T06:21:40;5.83;;;3.80;;
37487;SDS011;23342;52.620;13.300;2022-08-05T06:24:05;4.83;;;4.13;;
37487;SDS011;23342;52.620;13.300;2022-08-05T06:26:31;6.50;;;4.13;;
37487;SDS011;23342;52.620;13.300;2022-08-05T06:28:57;5.13;;;4.27;;
37487;SDS011;23342;52.620;13.300;2022-08-05T06:31:22;7.87;;;4.27;;
37487;SDS011;23342;52.620;13.300;2022-08-05T06:33:48;5.13;;;3.77;;
37487;SDS011;23342;52.620;13.300;2022-08-05T06:36:14;9.13;;;4.27;;
37487;SDS011;23342;52.620;13.300;2022-08-05T06:38:40;6.90;;;4.17;;
37487;SDS011;23342;52.620;13.300;2022-08-05T06:41:06;6.50;;;3.80;;
37487;SDS011;23342;52.620;13.300;2022-08-05T06:43:31;8.10;;;3.83;;
37487;SDS011;23342;52.620;13.300;2022-08-05T06:45:57;14.37;;;3.80;;
37487;SDS011;23342;52.620;13.300;2022-08-05T06:48:22;4.07;;;3.40;;
37487;SDS011;23342;52.620;13.300;2022-08-05T06:50:48;6.97;;;3.50;;
37487;SDS011;23342;52.620;13.300;2022-08-05T06:53:13;6.80;;;3.53;;
37487;SDS011;23342;52.620;13.300;2022-08-05T06:55:40;7.17;;;3.57;;
37487;SDS011;23342;52.620;13.300;2022-08-05T06:58:06;7.87;;;3.50;;
37487;SDS011;23342;52.620;13.300;2022-08-05T07:00:31;5.27;;;3.00;;
37487;SDS011;23342;52.620;13.300;2022-08-05T07:02:58;5.77;;;3.80;;
37487;SDS011;23342;52.620;13.300;2022-08-05T07:05:23;5.47;;;3.57;;
37487;SDS011;23342;52.620;13.300;2022-08-05T07:07:49;7.87;;;3.30;;
37487;SDS011;23342;52.620;13.300;2022-08-05T07:10:15;6.47;;;3.87;;
37487;SDS011;23342;52.620;13.300;2022-08-05T07:12:40;4.17;;;3.17;;
37487;SDS011;23342;52.620;13.300;2022-08-05T07:15:24;5.20;;;3.53;;
37487;SDS011;23342;52.620;13.300;2022-08-05T07:18:08;5.20;;;3.23;;
37487;SDS011;23342;52.620;13.300;2022-08-05T07:20:34;5.77;;;3.47;;
37487;SDS011;23342;52.620;13.300;2022-08-05T07:22:59;5.13;;;3.60;;
37487;SDS011;23342;52.620;13.300;2022-08-05T07:25:25;5.77;;;3.93;;
37487;SDS011;23342;52.620;13.300;2022-08-05T07:27:51;5.67;;;3.67;;
37487;SDS011;23342;52.620;13.300;2022-08-05T07:30:17;4.23;;;3.50;;
37487;SDS011;23342;52.620;13.300;2022-08-05T07:32:43;6.97;;;3.83;;
37487;SDS011;23342;52.620;13.300;2022-08-05T07:35:09;5.70;;;3.80;;
37487;SDS011;23342;52.620;13.300;2022-08-05T07:37:37;4.23;;;3.60;;
37487;SDS011;23342;52.620;13.300;2022-08-05T07:40:03;7.93;;;3.73;;
37487;SDS011;23342;52.620;13.300;2022-08-05T07:42:30;7.17;;;3.80;;
37487;SDS011;23342;52.620;13.300;2022-08-05T07:44:56;9.47;;;3.57;;
37487;SDS011;23342;52.620;13.300;2022-08-05T07:47:22;8.97;;;3.80;;
37487;SDS011;23342;52.620;13.300;2022-08-05T07:49:48;6.13;;;3.80;;
37487;SDS011;23342;52.620;13.300;2022-08-05T07:52:16;8.13;;;3.70;;
37487;SDS011;23342;52.620;13.300;2022-08-05T07:54:45;6.03;;;3.57;;
37487;SDS011;23342;52.620;13.300;2022-08-05T07:57:11;4.67;;;3.40;;
37487;SDS011;23342;52.620;13.300;2022-08-05T07:59:37;6.43;;;3.60;;
37487;SDS011;23342;52.620;13.300;2022-08-05T08:02:02;7.40;;;3.40;;
37487;SDS011;23342;52.620;13.300;2022-08-05T08:04:29;7.80;;;3.60;;
37487;SDS011;23342;52.620;13.300;2022-08-05T08:06:54;6.37;;;3.47;;
37487;SDS011;23342;52.620;13.300;2022-08-05T08:09:20;10.20;;;3.90;;
37487;SDS011;23342;52.620;13.300;2022-08-05T08:11:48;7.00;;;3.90;;
37487;SDS011;23342;52.620;13.300;2022-08-05T08:14:13;7.70;;;4.50;;
37487;SDS011;23342;52.620;13.300;2022-08-05T08:16:39;5.17;;;4.43;;
37487;SDS011;23342;52.620;13.300;2022-08-05T08:19:04;5.97;;;3.83;;
37487;SDS011;23342;52.620;13.300;2022-08-05T08:21:29;4.53;;;3.43;;
37487;SDS011;23342;52.620;13.300;2022-08-05T08:23:55;8.83;;;4.33;;
37487;SDS011;23342;52.620;13.300;2022-08-05T08:26:20;9.83;;;4.03;;
37487;SDS011;23342;52.620;13.300;2022-08-05T08:28:46;4.87;;;3.90;;
37487;SDS011;23342;52.620;13.300;2022-08-05T08:31:11;4.33;;;3.70;;
37487;SDS011;23342;52.620;13.300;2022-08-05T08:33:37;5.67;;;3.47;;
37487;SDS011;23342;52.620;13.300;2022-08-05T08:36:02;4.50;;;3.70;;
37487;SDS011;23342;52.620;13.300;2022-08-05T08:38:28;5.03;;;3.90;;
37487;SDS011;23342;52.620;13.300;2022-08-05T08:40:54;4.37;;;3.70;;
37487;SDS011;23342;52.620;13.300;2022-08-05T08:43:20;3.57;;;3.27;;
37487;SDS011;23342;52.620;13.300;2022-08-05T08:45:47;4.70;;;3.90;;
37487;SDS011;23342;52.620;13.300;2022-08-05T08:48:14;10.23;;;4.37;;
37487;SDS011;23342;52.620;13.300;2022-08-05T08:50:42;5.20;;;3.43;;
37487;SDS011;23342;52.620;13.300;2022-08-05T08:53:09;5.97;;;3.60;;
37487;SDS011;23342;52.620;13.300;2022-08-05T08:55:38;5.73;;;3.90;;
37487;SDS011;23342;52.620;13.300;2022-08-05T08:58:05;5.27;;;3.50;;
37487;SDS011;23342;52.620;13.300;2022-08-05T09:00:31;4.13;;;3.67;;
37487;SDS011;23342;52.620;13.300;2022-08-05T09:02:57;5.10;;;3.40;;
37487;SDS011;23342;52.620;13.300;2022-08-05T09:05:24;5.20;;;3.67;;
37487;SDS011;23342;52.620;13.300;2022-08-05T09:07:50;4.43;;;3.33;;
37487;SDS011;23342;52.620;13.300;2022-08-05T09:10:17;7.13;;;3.47;;
37487;SDS011;23342;52.620;13.300;2022-08-05T09:12:43;6.83;;;3.93;;
37487;SDS011;23342;52.620;13.300;2022-08-05T09:15:09;6.27;;;3.80;;
37487;SDS011;23342;52.620;13.300;2022-08-05T09:17:35;9.90;;;4.00;;
37487;SDS011;23342;52.620;13.300;2022-08-05T09:20:01;6.50;;;3.67;;
37487;SDS011;23342;52.620;13.300;2022-08-05T09:22:28;6.10;;;4.10;;
37487;SDS011;23342;52.620;13.300;2022-08-05T09:25:26;7.60;;;3.80;;
37487;SDS011;23342;52.620;13.300;2022-08-05T09:27:52;6.77;;;3.57;;
37487;SDS011;23342;52.620;13.300;2022-08-05T09:30:17;9.00;;;3.67;;
37487;SDS011;23342;52.620;13.300;2022-08-05T09:32:43;5.90;;;4.03;;
37487;SDS011;23342;52.620;13.300;2022-08-05T09:35:09;5.70;;;3.87;;
37487;SDS011;23342;52.620;13.300;2022-08-05T09:37:36;6.27;;;3.73;;
37487;SDS011;23342;52.620;13.300;2022-08-05T09:40:27;7.60;;;3.50;;
37487;SDS011;23342;52.620;13.300;2022-08-05T09:42:57;5.90;;;3.63;;
37487;SDS011;23342;52.620;13.300;2022-08-05T09:45:33;4.83;;;3.70;;
37487;SDS011;23342;52.620;13.300;2022-08-05T09:48:25;5.80;;;3.90;;
37487;SDS011;23342;52.620;13.300;2022-08-05T09:50:56;4.47;;;3.60;;
37487;SDS011;23342;52.620;13.300;2022-08-05T09:53:27;8.53;;;3.57;;
37487;SDS011;23342;52.620;13.300;2022-08-05T09:55:58;4.23;;;3.80;;
37487;SDS011;23342;52.620;13.300;2022-08-05T09:58:25;7.10;;;3.90;;
37487;SDS011;23342;52.620;13.300;2022-08-05T10:00:52;7.97;;;4.17;;
37487;SDS011;23342;52.620;13.300;2022-08-05T10:03:26;7.90;;;4.07;;
37487;SDS011;23342;52.620;13.300;2022-08-05T10:06:02;8.03;;;4.90;;
37487;SDS011;23342;52.620;13.300;2022-08-05T10:08:34;7.67;;;4.57;;
37487;SDS011;23342;52.620;13.300;2022-08-05T10:11:03;6.57;;;4.60;;
37487;SDS011;23342;52.620;13.300;2022-08-05T10:13:37;4.73;;;4.00;;
37487;SDS011;23342;52.620;13.300;2022-08-05T10:16:04;6.90;;;3.80;;
37487;SDS011;23342;52.620;13.300;2022-08-05T10:18:31;6.53;;;4.40;;
37487;SDS011;23342;52.620;13.300;2022-08-05T10:21:02;7.07;;;4.47;;
37487;SDS011;23342;52.620;13.300;2022-08-05T10:23:34;5.63;;;4.13;;
37487;SDS011;23342;52.620;13.300;2022-08-05T10:26:02;8.03;;;4.60;;
37487;SDS011;23342;52.620;13.300;2022-08-05T10:28:30;4.87;;;4.13;;
37487;SDS011;23342;52.620;13.300;2022-08-05T10:30:56;5.47;;;3.70;;
37487;SDS011;23342;52.620;13.300;2022-08-05T10:33:23;7.37;;;4.00;;
37487;SDS011;23342;52.620;13.300;2022-08-05T10:35:51;7.27;;;4.50;;
37487;SDS011;23342;52.620;13.300;2022-08-05T10:38:21;5.27;;;3.90;;
37487;SDS011;23342;52.620;13.300;2022-08-05T10:41:35;5.77;;;4.07;;
37487;SDS011;23342;52.620;13.300;2022-08-05T10:44:11;6.50;;;4.17;;
37487;SDS011;23342;52.620;13.300;2022-08-05T10:46:44;4.83;;;3.67;;
37487;SDS011;23342;52.620;13.300;2022-08-05T10:49:18;6.67;;;3.73;;
37487;SDS011;23342;52.620;13.300;2022-08-05T10:51:44;6.27;;;4.00;;
37487;SDS011;23342;52.620;13.300;2022-08-05T10:54:13;6.90;;;4.00;;
37487;SDS011;23342;52.620;13.300;2022-08-05T10:56:43;6.33;;;3.97;;
37487;SDS011;23342;52.620;13.300;2022-08-05T10:59:17;5.30;;;3.70;;
37487;SDS011;23342;52.620;13.300;2022-08-05T11:01:49;8.70;;;3.60;;
37487;SDS011;23342;52.620;13.300;2022-08-05T11:04:46;4.83;;;3.10;;
37487;SDS011;23342;52.620;13.300;2022-08-05T11:07:13;6.17;;;3.20;;
37487;SDS011;23342;52.620;13.300;2022-08-05T11:09:49;6.57;;;3.13;;
37487;SDS011;23342;52.620;13.300;2022-08-05T11:16:19;3.50;;;2.70;;
37487;SDS011;23342;52.620;13.300;2022-08-05T11:18:46;3.43;;;2.40;;
37487;SDS011;23342;52.620;13.300;2022-08-05T11:21:29;4.10;;;2.70;;
37487;SDS011;23342;52.620;13.300;2022-08-05T11:23:55;4.87;;;2.70;;
37487;SDS011;23342;52.620;13.300;2022-08-05T11:26:21;4.73;;;2.80;;
37487;SDS011;23342;52.620;13.300;2022-08-05T11:28:48;4.57;;;2.73;;
37487;SDS011;23342;52.620;13.300;2022-08-05T11:31:24;4.77;;;2.57;;
37487;SDS011;23342;52.620;13.300;2022-08-05T11:33:58;4.90;;;2.67;;
37487;SDS011;23342;52.620;13.300;2022-08-05T11:36:39;3.23;;;2.80;;
37487;SDS011;23342;52.620;13.300;2022-08-05T11:39:13;4.13;;;2.23;;
37487;SDS011;23342;52.620;13.300;2022-08-05T11:41:41;5.47;;;2.50;;
37487;SDS011;23342;52.620;13.300;2022-08-05T11:44:13;4.50;;;2.00;;
37487;SDS011;23342;52.620;13.300;2022-08-05T11:46:45;3.80;;;2.40;;
37487;SDS011;23342;52.620;13.300;2022-08-05T11:49:20;3.50;;;2.77;;
37487;SDS011;23342;52.620;13.300;2022-08-05T11:51:48;6.30;;;3.23;;
37487;SDS011;23342;52.620;13.300;2022-08-05T11:57:44;3.30;;;2.83;;
37487;SDS011;23342;52.620;13.300;2022-08-05T12:00:31;4.73;;;2.90;;
37487;SDS011;23342;52.620;13.300;2022-08-05T12:03:02;3.27;;;2.50;;
37487;SDS011;23342;52.620;13.300;2022-08-05T12:05:45;4.80;;;2.40;;
37487;SDS011;23342;52.620;13.300;2022-08-05T12:08:10;4.33;;;2.23;;
37487;SDS011;23342;52.620;13.300;2022-08-05T12:10:36;4.73;;;2.60;;
37487;SDS011;23342;52.620;13.300;2022-08-05T12:13:03;3.80;;;2.80;;
37487;SDS011;23342;52.620;13.300;2022-08-05T12:15:29;4.83;;;2.90;;
37487;SDS011;23342;52.620;13.300;2022-08-05T12:17:54;5.57;;;2.77;;
37487;SDS011;23342;52.620;13.300;2022-08-05T12:20:25;3.40;;;2.20;;
37487;SDS011;23342;52.620;13.300;2022-08-05T12:22:51;2.87;;;1.90;;
37487;SDS011;23342;52.620;13.300;2022-08-05T12:25:47;2.43;;;2.07;;
37487;SDS011;23342;52.620;13.300;2022-08-05T12:28:28;4.87;;;2.50;;
37487;SDS011;23342;52.620;13.300;2022-08-05T12:30:58;3.97;;;2.00;;
37487;SDS011;23342;52.620;13.300;2022-08-05T12:33:23;3.43;;;2.40;;
37487;SDS011;23342;52.620;13.300;2022-08-05T12:35:49;2.97;;;2.13;;
37487;SDS011;23342;52.620;13.300;2022-08-05T12:38:15;4.90;;;2.47;;
37487;SDS011;23342;52.620;13.300;2022-08-05T12:40:41;5.43;;;2.60;;
37487;SDS011;23342;52.620;13.300;2022-08-05T12:43:07;3.27;;;2.50;;
37487;SDS011;23342;52.620;13.300;2022-08-05T12:45:32;3.07;;;2.20;;
37487;SDS011;23342;52.620;13.300;2022-08-05T12:47:58;4.87;;;2.57;;
37487;SDS011;23342;52.620;13.300;2022-08-05T12:50:37;5.57;;;2.50;;
37487;SDS011;23342;52.620;13.300;2022-08-05T12:53:02;8.67;;;2.70;;
37487;SDS011;23342;52.620;13.300;2022-08-05T12:55:29;2.93;;;2.20;;
37487;SDS011;23342;52.620;13.300;2022-08-05T12:57:56;3.40;;;2.30;;
37487;SDS011;23342;52.620;13.300;2022-08-05T13:00:25;2.70;;;2.30;;
37487;SDS011;23342;52.620;13.300;2022-08-05T13:02:53;4.27;;;1.90;;
37487;SDS011;23342;52.620;13.300;2022-08-05T13:05:20;3.60;;;2.00;;
37487;SDS011;23342;52.620;13.300;2022-08-05T13:07:49;2.20;;;1.97;;
37487;SDS011;23342;52.620;13.300;2022-08-05T13:10:15;3.00;;;2.03;;
37487;SDS011;23342;52.620;13.300;2022-08-05T13:12:41;5.50;;;2.10;;
37487;SDS011;23342;52.620;13.300;2022-08-05T13:15:09;3.17;;;2.20;;
37487;SDS011;23342;52.620;13.300;2022-08-05T13:17:36;6.10;;;2.20;;
37487;SDS011;23342;52.620;13.300;2022-08-05T13:20:12;2.30;;;2.10;;
37487;SDS011;23342;52.620;13.300;2022-08-05T13:22:40;5.00;;;2.43;;
37487;SDS011;23342;52.620;13.300;2022-08-05T13:25:10;5.63;;;2.30;;
37487;SDS011;23342;52.620;13.300;2022-08-05T13:27:39;3.30;;;2.30;;
37487;SDS011;23342;52.620;13.300;2022-08-05T13:30:11;4.73;;;2.47;;
37487;SDS011;23342;52.620;13.300;2022-08-05T13:32:38;2.50;;;2.20;;
37487;SDS011;23342;52.620;13.300;2022-08-05T13:35:04;4.63;;;2.50;;
37487;SDS011;23342;52.620;13.300;2022-08-05T13:37:31;2.53;;;2.30;;
37487;SDS011;23342;52.620;13.300;2022-08-05T13:39:57;3.13;;;2.77;;
37487;SDS011;23342;52.620;13.300;2022-08-05T13:42:23;3.57;;;2.60;;
37487;SDS011;23342;52.620;13.300;2022-08-05T13:44:50;5.83;;;2.63;;
37487;SDS011;23342;52.620;13.300;2022-08-05T13:47:17;4.63;;;2.67;;
37487;SDS011;23342;52.620;13.300;2022-08-05T13:49:43;3.93;;;2.60;;
37487;SDS011;23342;52.620;13.300;2022-08-05T13:52:09;7.17;;;2.60;;
37487;SDS011;23342;52.620;13.300;2022-08-05T13:54:50;6.90;;;3.00;;
37487;SDS011;23342;52.620;13.300;2022-08-05T13:57:19;5.47;;;2.87;;
37487;SDS011;23342;52.620;13.300;2022-08-05T13:59:45;5.33;;;2.90;;
37487;SDS011;23342;52.620;13.300;2022-08-05T14:02:11;5.07;;;2.80;;
37487;SDS011;23342;52.620;13.300;2022-08-05T14:04:42;3.47;;;2.53;;
37487;SDS011;23342;52.620;13.300;2022-08-05T14:07:32;3.53;;;2.70;;
37487;SDS011;23342;52.620;13.300;2022-08-05T14:09:59;6.17;;;2.23;;
37487;SDS011;23342;52.620;13.300;2022-08-05T14:12:26;2.93;;;2.60;;
37487;SDS011;23342;52.620;13.300;2022-08-05T14:14:52;6.43;;;2.87;;
37487;SDS011;23342;52.620;13.300;2022-08-05T14:17:17;3.63;;;2.50;;
37487;SDS011;23342;52.620;13.300;2022-08-05T14:19:43;4.73;;;3.10;;
37487;SDS011;23342;52.620;13.300;2022-08-05T14:22:09;9.20;;;2.77;;
37487;SDS011;23342;52.620;13.300;2022-08-05T14:24:35;5.73;;;2.87;;
37487;SDS011;23342;52.620;13.300;2022-08-05T14:27:02;3.97;;;2.70;;
37487;SDS011;23342;52.620;13.300;2022-08-05T14:29:28;5.00;;;2.73;;
37487;SDS011;23342;52.620;13.300;2022-08-05T14:31:54;3.60;;;2.80;;
37487;SDS011;23342;52.620;13.300;2022-08-05T14:34:20;3.97;;;2.60;;
37487;SDS011;23342;52.620;13.300;2022-08-05T14:36:45;5.60;;;2.80;;
37487;SDS011;23342;52.620;13.300;2022-08-05T14:39:11;4.23;;;2.83;;
37487;SDS011;23342;52.620;13.300;2022-08-05T14:41:36;3.80;;;2.60;;
37487;SDS011;23342;52.620;13.300;2022-08-05T14:44:02;4.47;;;2.73;;
37487;SDS011;23342;52.620;13.300;2022-08-05T14:46:29;4.83;;;2.87;;
37487;SDS011;23342;52.620;13.300;2022-08-05T14:48:56;4.97;;;3.00;;
37487;SDS011;23342;52.620;13.300;2022-08-05T14:51:24;5.47;;;3.00;;
37487;SDS011;23342;52.620;13.300;2022-08-05T14:53:49;4.33;;;3.27;;
37487;SDS011;23342;52.620;13.300;2022-08-05T14:56:15;3.53;;;2.90;;
37487;SDS011;23342;52.620;13.300;2022-08-05T14:58:41;6.33;;;3.07;;